sensor_id;sensor_type;location;lat;lon;timestamp;pressure;altitude;pressure_sealevel;temperature;humidity
76108;BME280;64834;52.516;10.528;2023-07-29T00:01:23;100109.97;;;17.42;100.00
76108;BME280;64834;52.516;10.528;2023-07-29T00:03:49;100104.69;;;17.42;100.00
76108;BME280;64834;52.516;10.528;2023-07-29T00:06:14;100102.09;;;17.45;100.00
76108;BME280;64834;52.516;10.528;2023-07-29T00:08:39;100109.91;;;17.39;100.00
76108;BME280;64834;52.516;10.528;2023-07-29T00:11:05;100104.56;;;17.36;100.00
76108;BME280;64834;52.516;10.528;2023-07-29T00:13:30;100109.69;;;17.28;100.00
76108;BME280;64834;52.516;10.528;2023-07-29T00:15:55;100100.81;;;17.24;100.00
76108;BME280;64834;52.516;10.528;2023-07-29T00:18:21;100106.03;;;17.21;100.00
76108;BME280;64834;52.516;10.528;2023-07-29T00:20:47;100099.84;;;17.19;100.00
76108;BME280;64834;52.516;10.528;2023-07-29T00:23:12;100104.13;;;17.14;100.00
76108;BME280;64834;52.516;10.528;2023-07-29T00:25:38;100101.34;;;17.05;100.00
76108;BME280;64834;52.516;10.528;2023-07-29T00:28:03;100108.31;;;17.03;100.00
76108;BME280;64834;52.516;10.528;2023-07-29T00:30:29;100113.59;;;17.03;100.00
76108;BME280;64834;52.516;10.528;2023-07-29T00:32:54;100110.31;;;17.15;100.00
76108;BME280;64834;52.516;10.528;2023-07-29T00:35:19;100106.72;;;17.10;100.00
76108;BME280;64834;52.516;10.528;2023-07-29T00:37:45;100104.97;;;17.12;100.00
76108;BME280;64834;52.516;10.528;2023-07-29T00:40:19;100109.38;;;17.10;100.00
76108;BME280;64834;52.516;10.528;2023-07-29T00:42:46;100109.25;;;17.05;100.00
76108;BME280;64834;52.516;10.528;2023-07-29T00:45:12;100107.63;;;17.12;100.00
76108;BME280;64834;52.516;10.528;2023-07-29T00:47:37;100110.25;;;17.10;100.00
76108;BME280;64834;52.516;10.528;2023-07-29T00:50:03;100104.97;;;17.10;100.00
76108;BME280;64834;52.516;10.528;2023-07-29T00:52:29;100113.94;;;17.18;100.00
76108;BME280;64834;52.516;10.528;2023-07-29T00:54:54;100113.31;;;17.33;100.00
76108;BME280;64834;52.516;10.528;2023-07-29T00:57:20;100107.28;;;17.40;100.00
76108;BME280;64834;52.516;10.528;2023-07-29T00:59:46;100107.44;;;17.48;100.00
76108;BME280;64834;52.516;10.528;2023-07-29T01:02:12;100107.59;;;17.57;100.00
76108;BME280;64834;52.516;10.528;2023-07-29T01:04:37;100106.81;;;17.63;100.00
76108;BME280;64834;52.516;10.528;2023-07-29T01:12:27;100102.38;;;17.60;100.00
76108;BME280;64834;52.516;10.528;2023-07-29T01:15:09;100101.53;;;17.63;100.00
76108;BME280;64834;52.516;10.528;2023-07-29T01:17:42;100097.91;;;17.58;100.00
76108;BME280;64834;52.516;10.528;2023-07-29T01:20:11;100093.50;;;17.58;100.00
76108;BME280;64834;52.516;10.528;2023-07-29T01:22:39;100097.88;;;17.56;100.00
76108;BME280;64834;52.516;10.528;2023-07-29T01:25:05;100092.69;;;17.61;100.00
76108;BME280;64834;52.516;10.528;2023-07-29T01:27:31;100093.56;;;17.61;100.00
76108;BME280;64834;52.516;10.528;2023-07-29T01:29:57;100090.75;;;17.53;100.00
76108;BME280;64834;52.516;10.528;2023-07-29T01:35:21;100082.81;;;17.52;100.00
76108;BME280;64834;52.516;10.528;2023-07-29T01:37:53;100078.41;;;17.52;100.00
76108;BME280;64834;52.516;10.528;2023-07-29T01:40:22;100079.16;;;17.45;100.00
76108;BME280;64834;52.516;10.528;2023-07-29T01:42:48;100079.16;;;17.44;100.00
76108;BME280;64834;52.516;10.528;2023-07-29T01:45:14;100074.66;;;17.40;100.00
76108;BME280;64834;52.516;10.528;2023-07-29T01:47:40;100068.34;;;17.33;100.00
76108;BME280;64834;52.516;10.528;2023-07-29T01:50:07;100071.00;;;17.33;100.00
76108;BME280;64834;52.516;10.528;2023-07-29T01:52:32;100063.25;;;17.42;100.00
76108;BME280;64834;52.516;10.528;2023-07-29T01:54:58;100069.44;;;17.44;100.00
76108;BME280;64834;52.516;10.528;2023-07-29T01:57:23;100068.59;;;17.45;100.00
76108;BME280;64834;52.516;10.528;2023-07-29T01:59:48;100065.06;;;17.46;100.00
76108;BME280;64834;52.516;10.528;2023-07-29T02:02:14;100066.88;;;17.47;100.00
76108;BME280;64834;52.516;10.528;2023-07-29T02:04:39;100071.25;;;17.47;100.00
76108;BME280;64834;52.516;10.528;2023-07-29T02:07:04;100074.81;;;17.47;100.00
76108;BME280;64834;52.516;10.528;2023-07-29T02:09:30;100073.94;;;17.48;100.00
76108;BME280;64834;52.516;10.528;2023-07-29T02:11:56;100074.75;;;17.46;100.00
76108;BME280;64834;52.516;10.528;2023-07-29T02:14:22;100068.44;;;17.36;100.00
76108;BME280;64834;52.516;10.528;2023-07-29T02:16:47;100072.78;;;17.34;100.00
76108;BME280;64834;52.516;10.528;2023-07-29T02:19:13;100070.22;;;17.37;100.00
76108;BME280;64834;52.516;10.528;2023-07-29T02:21:38;100063.09;;;17.35;100.00
76108;BME280;64834;52.516;10.528;2023-07-29T02:24:04;100063.94;;;17.32;100.00
76108;BME280;64834;52.516;10.528;2023-07-29T02:26:29;100067.44;;;17.30;100.00
76108;BME280;64834;52.516;10.528;2023-07-29T02:28:54;100058.56;;;17.27;100.00
76108;BME280;64834;52.516;10.528;2023-07-29T02:31:21;100064.72;;;17.28;100.00
76108;BME280;64834;52.516;10.528;2023-07-29T02:33:47;100062.09;;;17.28;100.00
76108;BME280;64834;52.516;10.528;2023-07-29T02:36:13;100064.69;;;17.25;100.00
76108;BME280;64834;52.516;10.528;2023-07-29T02:38:39;100062.91;;;17.24;100.00
76108;BME280;64834;52.516;10.528;2023-07-29T02:41:04;100069.00;;;17.20;100.00
76108;BME280;64834;52.516;10.528;2023-07-29T02:43:30;100064.81;;;17.31;100.00
76108;BME280;64834;52.516;10.528;2023-07-29T02:45:55;100067.44;;;17.31;100.00
76108;BME280;64834;52.516;10.528;2023-07-29T02:48:20;100056.91;;;17.34;100.00
76108;BME280;64834;52.516;10.528;2023-07-29T02:50:46;100058.56;;;17.27;100.00
76108;BME280;64834;52.516;10.528;2023-07-29T02:53:11;100059.56;;;17.34;100.00
76108;BME280;64834;52.516;10.528;2023-07-29T02:55:39;100057.03;;;17.40;100.00
76108;BME280;64834;52.516;10.528;2023-07-29T02:58:05;100055.22;;;17.36;100.00
76108;BME280;64834;52.516;10.528;2023-07-29T03:00:31;100062.16;;;17.31;100.00
76108;BME280;64834;52.516;10.528;2023-07-29T03:02:57;100069.97;;;17.25;100.00
76108;BME280;64834;52.516;10.528;2023-07-29T03:05:22;100070.06;;;17.30;100.00
76108;BME280;64834;52.516;10.528;2023-07-29T03:07:47;100069.31;;;17.37;100.00
76108;BME280;64834;52.516;10.528;2023-07-29T03:10:13;100059.63;;;17.37;100.00
76108;BME280;64834;52.516;10.528;2023-07-29T03:12:39;100065.00;;;17.42;100.00
76108;BME280;64834;52.516;10.528;2023-07-29T03:15:05;100060.53;;;17.39;100.00
76108;BME280;64834;52.516;10.528;2023-07-29T03:17:30;100060.53;;;17.39;100.00
76108;BME280;64834;52.516;10.528;2023-07-29T03:19:55;100055.34;;;17.45;100.00
76108;BME280;64834;52.516;10.528;2023-07-29T03:22:21;100049.13;;;17.42;100.00
76108;BME280;64834;52.516;10.528;2023-07-29T03:24:46;100046.50;;;17.42;100.00
76108;BME280;64834;52.516;10.528;2023-07-29T03:27:11;100052.63;;;17.41;100.00
76108;BME280;64834;52.516;10.528;2023-07-29T03:29:37;100051.91;;;17.48;100.00
76108;BME280;64834;52.516;10.528;2023-07-29T03:32:02;100056.38;;;17.53;100.00
76108;BME280;64834;52.516;10.528;2023-07-29T03:34:28;100066.13;;;17.56;100.00
76108;BME280;64834;52.516;10.528;2023-07-29T03:36:53;100053.78;;;17.55;100.00
76108;BME280;64834;52.516;10.528;2023-07-29T03:39:19;100057.13;;;17.45;100.00
76108;BME280;64834;52.516;10.528;2023-07-29T03:41:44;100052.72;;;17.45;100.00
76108;BME280;64834;52.516;10.528;2023-07-29T03:44:09;100047.53;;;17.51;100.00
76108;BME280;64834;52.516;10.528;2023-07-29T03:46:35;100049.38;;;17.56;100.00
76108;BME280;64834;52.516;10.528;2023-07-29T03:49:00;100057.22;;;17.51;100.00
76108;BME280;64834;52.516;10.528;2023-07-29T03:51:25;100045.84;;;17.57;100.00
76108;BME280;64834;52.516;10.528;2023-07-29T03:53:51;100045.88;;;17.58;100.00
76108;BME280;64834;52.516;10.528;2023-07-29T03:56:16;100049.47;;;17.60;100.00
76108;BME280;64834;52.516;10.528;2023-07-29T03:58:42;100050.28;;;17.58;100.00
76108;BME280;64834;52.516;10.528;2023-07-29T04:01:09;100048.50;;;17.57;100.00
76108;BME280;64834;52.516;10.528;2023-07-29T04:03:34;100048.53;;;17.60;100.00
76108;BME280;64834;52.516;10.528;2023-07-29T04:05:59;100041.44;;;17.56;100.00
76108;BME280;64834;52.516;10.528;2023-07-29T04:08:25;100038.03;;;17.63;100.00
76108;BME280;64834;52.516;10.528;2023-07-29T04:10:50;100040.75;;;17.67;100.00
76108;BME280;64834;52.516;10.528;2023-07-29T04:13:16;100036.38;;;17.71;100.00
76108;BME280;64834;52.516;10.528;2023-07-29T04:15:41;100041.78;;;17.74;100.00
76108;BME280;64834;52.516;10.528;2023-07-29T04:18:07;100036.47;;;17.74;100.00
76108;BME280;64834;52.516;10.528;2023-07-29T04:20:32;100035.72;;;17.83;100.00
76108;BME280;64834;52.516;10.528;2023-07-29T04:22:58;100042.78;;;17.84;100.00
76108;BME280;64834;52.516;10.528;2023-07-29T04:25:24;100042.88;;;17.88;100.00
76108;BME280;64834;52.516;10.528;2023-07-29T04:27:49;100046.47;;;17.92;100.00
76108;BME280;64834;52.516;10.528;2023-07-29T04:30:14;100047.28;;;17.89;100.00
76108;BME280;64834;52.516;10.528;2023-07-29T04:32:40;100056.09;;;17.87;100.00
76108;BME280;64834;52.516;10.528;2023-07-29T04:35:10;100055.16;;;17.85;100.00
76108;BME280;64834;52.516;10.528;2023-07-29T04:37:35;100056.97;;;17.87;100.00
76108;BME280;64834;52.516;10.528;2023-07-29T04:40:01;100058.75;;;17.88;100.00
76108;BME280;64834;52.516;10.528;2023-07-29T04:42:26;100058.78;;;17.90;100.00
76108;BME280;64834;52.516;10.528;2023-07-29T04:44:51;100062.34;;;17.92;100.00
76108;BME280;64834;52.516;10.528;2023-07-29T04:47:17;100062.47;;;17.99;100.00
76108;BME280;64834;52.516;10.528;2023-07-29T04:49:42;100056.38;;;18.05;100.00
76108;BME280;64834;52.516;10.528;2023-07-29T04:52:08;100050.22;;;18.06;100.00
76108;BME280;64834;52.516;10.528;2023-07-29T04:54:33;100045.78;;;18.05;100.00
76108;BME280;64834;52.516;10.528;2023-07-29T04:56:58;100049.22;;;17.99;100.00
76108;BME280;64834;52.516;10.528;2023-07-29T04:59:24;100041.38;;;18.04;100.00
76108;BME280;64834;52.516;10.528;2023-07-29T05:01:49;100034.31;;;18.06;100.00
76108;BME280;64834;52.516;10.528;2023-07-29T05:04:14;100030.78;;;18.04;100.00
76108;BME280;64834;52.516;10.528;2023-07-29T05:06:40;100029.72;;;17.94;100.00
76108;BME280;64834;52.516;10.528;2023-07-29T05:09:16;100024.63;;;18.08;100.00
76108;BME280;64834;52.516;10.528;2023-07-29T05:11:42;100012.28;;;18.10;100.00
76108;BME280;64834;52.516;10.528;2023-07-29T05:14:09;100014.13;;;18.14;100.00
76108;BME280;64834;52.516;10.528;2023-07-29T05:16:35;100012.50;;;18.24;100.00
76108;BME280;64834;52.516;10.528;2023-07-29T05:19:00;100008.03;;;18.20;100.00
76108;BME280;64834;52.516;10.528;2023-07-29T05:21:25;100006.19;;;18.13;100.00
76108;BME280;64834;52.516;10.528;2023-07-29T05:23:51;100004.59;;;18.25;100.00
76108;BME280;64834;52.516;10.528;2023-07-29T05:26:16;100003.06;;;18.43;100.00
76108;BME280;64834;52.516;10.528;2023-07-29T05:28:41;100005.63;;;18.37;100.00
76108;BME280;64834;52.516;10.528;2023-07-29T05:31:07;100014.31;;;18.28;100.00
76108;BME280;64834;52.516;10.528;2023-07-29T05:33:32;100008.19;;;18.30;100.00
76108;BME280;64834;52.516;10.528;2023-07-29T05:35:57;100003.72;;;18.26;100.00
76108;BME280;64834;52.516;10.528;2023-07-29T05:38:23;100008.19;;;18.32;100.00
76108;BME280;64834;52.516;10.528;2023-07-29T05:40:49;100010.94;;;18.38;100.00
76108;BME280;64834;52.516;10.528;2023-07-29T05:43:14;100015.34;;;18.39;100.00
76108;BME280;64834;52.516;10.528;2023-07-29T05:45:40;100009.22;;;18.42;100.00
76108;BME280;64834;52.516;10.528;2023-07-29T05:48:05;100014.66;;;18.54;100.00
76108;BME280;64834;52.516;10.528;2023-07-29T05:50:30;100026.16;;;18.54;100.00
76108;BME280;64834;52.516;10.528;2023-07-29T05:52:56;100024.47;;;18.61;100.00
76108;BME280;64834;52.516;10.528;2023-07-29T05:55:21;100022.84;;;18.68;100.00
76108;BME280;64834;52.516;10.528;2023-07-29T05:57:46;100017.44;;;18.65;100.00
76108;BME280;64834;52.516;10.528;2023-07-29T06:00:12;100024.50;;;18.64;100.00
76108;BME280;64834;52.516;10.528;2023-07-29T06:02:37;100028.03;;;18.63;100.00
76108;BME280;64834;52.516;10.528;2023-07-29T06:05:03;100028.06;;;18.66;100.00
76108;BME280;64834;52.516;10.528;2023-07-29T06:07:29;100036.88;;;18.65;100.00
76108;BME280;64834;52.516;10.528;2023-07-29T06:09:56;100031.56;;;18.62;100.00
76108;BME280;64834;52.516;10.528;2023-07-29T06:12:21;100031.47;;;18.54;100.00
76108;BME280;64834;52.516;10.528;2023-07-29T06:14:46;100028.75;;;18.50;100.00
76108;BME280;64834;52.516;10.528;2023-07-29T06:17:12;100031.38;;;18.48;100.00
76108;BME280;64834;52.516;10.528;2023-07-29T06:19:37;100030.53;;;18.52;100.00
76108;BME280;64834;52.516;10.528;2023-07-29T06:22:03;100025.13;;;18.43;100.00
76108;BME280;64834;52.516;10.528;2023-07-29T06:24:30;100026.03;;;18.44;100.00
76108;BME280;64834;52.516;10.528;2023-07-29T06:26:55;100029.63;;;18.49;100.00
76108;BME280;64834;52.516;10.528;2023-07-29T06:29:21;100035.84;;;18.52;100.00
76108;BME280;64834;52.516;10.528;2023-07-29T06:31:46;100046.41;;;18.49;100.00
76108;BME280;64834;52.516;10.528;2023-07-29T06:34:11;100029.59;;;18.47;100.00
76108;BME280;64834;52.516;10.528;2023-07-29T06:36:37;100029.53;;;18.43;100.00
76108;BME280;64834;52.516;10.528;2023-07-29T06:39:02;100033.97;;;18.45;100.00
76108;BME280;64834;52.516;10.528;2023-07-29T06:41:27;100038.38;;;18.45;100.00
76108;BME280;64834;52.516;10.528;2023-07-29T06:43:53;100038.47;;;18.51;100.00
76108;BME280;64834;52.516;10.528;2023-07-29T06:46:18;100045.56;;;18.53;100.00
76108;BME280;64834;52.516;10.528;2023-07-29T06:48:43;100047.38;;;18.54;100.00
76108;BME280;64834;52.516;10.528;2023-07-29T06:51:09;100034.94;;;18.52;100.00
76108;BME280;64834;52.516;10.528;2023-07-29T06:53:34;100032.22;;;18.47;100.00
76108;BME280;64834;52.516;10.528;2023-07-29T06:55:59;100026.97;;;18.49;100.00
76108;BME280;64834;52.516;10.528;2023-07-29T06:58:25;100025.16;;;18.46;100.00
76108;BME280;64834;52.516;10.528;2023-07-29T07:00:50;100025.22;;;18.49;100.00
76108;BME280;64834;52.516;10.528;2023-07-29T07:03:16;100030.59;;;18.55;100.00
76108;BME280;64834;52.516;10.528;2023-07-29T07:05:41;100028.03;;;18.62;100.00
76108;BME280;64834;52.516;10.528;2023-07-29T07:08:07;100021.84;;;18.63;100.00
76108;BME280;64834;52.516;10.528;2023-07-29T07:10:32;100022.75;;;18.66;100.00
76108;BME280;64834;52.516;10.528;2023-07-29T07:12:59;100011.22;;;18.61;100.00
76108;BME280;64834;52.516;10.528;2023-07-29T07:15:24;100016.47;;;18.56;100.00
76108;BME280;64834;52.516;10.528;2023-07-29T07:17:51;100020.81;;;18.50;100.00
76108;BME280;64834;52.516;10.528;2023-07-29T07:20:16;100021.69;;;18.50;100.00
76108;BME280;64834;52.516;10.528;2023-07-29T07:22:41;100017.25;;;18.49;100.00
76108;BME280;64834;52.516;10.528;2023-07-29T07:25:07;100034.88;;;18.46;100.00
76108;BME280;64834;52.516;10.528;2023-07-29T07:27:32;100033.97;;;18.42;100.00
76108;BME280;64834;52.516;10.528;2023-07-29T07:29:58;100044.59;;;18.47;100.00
76108;BME280;64834;52.516;10.528;2023-07-29T07:32:23;100043.59;;;18.39;100.00
76108;BME280;64834;52.516;10.528;2023-07-29T07:34:48;100035.69;;;18.40;100.00
76108;BME280;64834;52.516;10.528;2023-07-29T07:37:14;100042.88;;;18.50;100.00
76108;BME280;64834;52.516;10.528;2023-07-29T07:39:39;100034.84;;;18.44;100.00
76108;BME280;64834;52.516;10.528;2023-07-29T07:42:05;100034.06;;;18.50;100.00
76108;BME280;64834;52.516;10.528;2023-07-29T07:44:30;100030.53;;;18.54;100.00
76108;BME280;64834;52.516;10.528;2023-07-29T07:46:55;100029.81;;;18.66;100.00
76108;BME280;64834;52.516;10.528;2023-07-29T07:49:21;100027.16;;;18.64;100.00
76108;BME280;64834;52.516;10.528;2023-07-29T07:51:47;100030.69;;;18.65;100.00
76108;BME280;64834;52.516;10.528;2023-07-29T07:54:12;100030.69;;;18.65;100.00
76108;BME280;64834;52.516;10.528;2023-07-29T07:56:37;100038.81;;;18.75;100.00
76108;BME280;64834;52.516;10.528;2023-07-29T07:59:03;100036.16;;;18.75;100.00
76108;BME280;64834;52.516;10.528;2023-07-29T08:01:37;100031.75;;;18.74;100.00
76108;BME280;64834;52.516;10.528;2023-07-29T08:04:03;100022.94;;;18.78;100.00
76108;BME280;64834;52.516;10.528;2023-07-29T08:06:28;100025.63;;;18.80;100.00
76108;BME280;64834;52.516;10.528;2023-07-29T08:08:54;100020.34;;;18.84;100.00
76108;BME280;64834;52.516;10.528;2023-07-29T08:11:19;100026.38;;;18.70;100.00
76108;BME280;64834;52.516;10.528;2023-07-29T08:13:44;100020.09;;;18.63;100.00
76108;BME280;64834;52.516;10.528;2023-07-29T08:16:10;100028.97;;;18.67;100.00
76108;BME280;64834;52.516;10.528;2023-07-29T08:18:35;100017.63;;;18.75;100.00
76108;BME280;64834;52.516;10.528;2023-07-29T08:21:01;100014.00;;;18.69;100.00
76108;BME280;64834;52.516;10.528;2023-07-29T08:23:30;100014.06;;;18.73;100.00
76108;BME280;64834;52.516;10.528;2023-07-29T08:25:57;100007.91;;;18.79;100.00
76108;BME280;64834;52.516;10.528;2023-07-29T08:28:37;100004.44;;;18.83;100.00
76108;BME280;64834;52.516;10.528;2023-07-29T08:31:03;100000.91;;;18.85;100.00
76108;BME280;64834;52.516;10.528;2023-07-29T08:33:30;99992.13;;;18.91;100.00
76108;BME280;64834;52.516;10.528;2023-07-29T08:35:57;99978.13;;;19.00;100.00
76108;BME280;64834;52.516;10.528;2023-07-29T08:38:22;99977.25;;;19.04;100.00
76108;BME280;64834;52.516;10.528;2023-07-29T08:41:10;99988.91;;;19.21;100.00
76108;BME280;64834;52.516;10.528;2023-07-29T08:43:39;99992.47;;;19.23;100.00
76108;BME280;64834;52.516;10.528;2023-07-29T08:46:04;99988.19;;;19.40;100.00
76108;BME280;64834;52.516;10.528;2023-07-29T08:48:32;99993.81;;;19.74;100.00
76108;BME280;64834;52.516;10.528;2023-07-29T08:51:01;99990.41;;;19.98;100.00
76108;BME280;64834;52.516;10.528;2023-07-29T08:53:28;99985.31;;;20.35;100.00
76108;BME280;64834;52.516;10.528;2023-07-29T08:55:54;99983.66;;;20.52;98.97
76108;BME280;64834;52.516;10.528;2023-07-29T08:58:20;99989.78;;;20.40;99.28
76108;BME280;64834;52.516;10.528;2023-07-29T09:00:47;99978.38;;;20.63;99.44
76108;BME280;64834;52.516;10.528;2023-07-29T09:03:12;99984.63;;;20.76;97.35
76108;BME280;64834;52.516;10.528;2023-07-29T09:05:38;99984.63;;;20.68;96.72
76108;BME280;64834;52.516;10.528;2023-07-29T09:08:04;99989.09;;;20.90;98.11
76108;BME280;64834;52.516;10.528;2023-07-29T09:10:29;99988.19;;;20.90;97.57
76108;BME280;64834;52.516;10.528;2023-07-29T09:12:55;99980.19;;;20.76;97.43
76108;BME280;64834;52.516;10.528;2023-07-29T09:15:30;99982.88;;;20.90;97.41
76108;BME280;64834;52.516;10.528;2023-07-29T09:17:57;99987.34;;;21.08;97.82
76108;BME280;64834;52.516;10.528;2023-07-29T09:20:26;99990.00;;;21.11;97.03
76108;BME280;64834;52.516;10.528;2023-07-29T09:22:54;99973.19;;;21.27;96.72
76108;BME280;64834;52.516;10.528;2023-07-29T09:25:28;99968.78;;;21.63;96.10
76108;BME280;64834;52.516;10.528;2023-07-29T09:27:59;99972.31;;;21.71;94.24
76108;BME280;64834;52.516;10.528;2023-07-29T09:30:25;99976.72;;;22.13;92.54
76108;BME280;64834;52.516;10.528;2023-07-29T09:32:57;99968.72;;;21.86;92.98
76108;BME280;64834;52.516;10.528;2023-07-29T09:35:24;99968.72;;;21.95;93.68
76108;BME280;64834;52.516;10.528;2023-07-29T09:37:51;99976.69;;;22.21;93.33
76108;BME280;64834;52.516;10.528;2023-07-29T09:40:17;99971.31;;;22.30;92.03
76108;BME280;64834;52.516;10.528;2023-07-29T09:42:55;99970.38;;;22.43;91.57
76108;BME280;64834;52.516;10.528;2023-07-29T09:45:25;99947.97;;;22.75;91.87
76108;BME280;64834;52.516;10.528;2023-07-29T09:47:54;99951.56;;;22.72;88.17
76108;BME280;64834;52.516;10.528;2023-07-29T09:50:25;99962.31;;;22.55;87.56
76108;BME280;64834;52.516;10.528;2023-07-29T09:52:51;99973.91;;;22.48;89.85
76108;BME280;64834;52.516;10.528;2023-07-29T09:55:24;99967.72;;;22.45;89.98
76108;BME280;64834;52.516;10.528;2023-07-29T09:58:00;99951.84;;;22.14;87.89
76108;BME280;64834;52.516;10.528;2023-07-29T10:00:30;99954.50;;;22.00;90.44
76108;BME280;64834;52.516;10.528;2023-07-29T10:02:57;99957.16;;;21.93;90.29
76108;BME280;64834;52.516;10.528;2023-07-29T10:05:25;99958.03;;;22.04;90.93
76108;BME280;64834;52.516;10.528;2023-07-29T10:07:50;99958.97;;;21.89;91.49
76108;BME280;64834;52.516;10.528;2023-07-29T10:10:16;99952.69;;;22.05;91.66
76108;BME280;64834;52.516;10.528;2023-07-29T10:12:42;99961.59;;;22.11;92.27
76108;BME280;64834;52.516;10.528;2023-07-29T10:15:08;99958.94;;;22.14;91.06
76108;BME280;64834;52.516;10.528;2023-07-29T10:17:36;99958.00;;;22.31;90.95
76108;BME280;64834;52.516;10.528;2023-07-29T10:20:04;99953.47;;;22.43;89.82
76108;BME280;64834;52.516;10.528;2023-07-29T10:22:36;99953.50;;;22.41;89.70
76108;BME280;64834;52.516;10.528;2023-07-29T10:25:14;99943.59;;;22.66;89.04
76108;BME280;64834;52.516;10.528;2023-07-29T10:28:03;99954.28;;;22.60;86.54
76108;BME280;64834;52.516;10.528;2023-07-29T10:30:30;99957.84;;;22.64;86.03
76108;BME280;64834;52.516;10.528;2023-07-29T10:32:58;99945.22;;;23.01;85.67
76108;BME280;64834;52.516;10.528;2023-07-29T10:35:23;99951.41;;;23.03;84.14
76108;BME280;64834;52.516;10.528;2023-07-29T10:37:50;99958.31;;;23.33;82.60
76108;BME280;64834;52.516;10.528;2023-07-29T10:40:17;99959.06;;;23.44;82.53
76108;BME280;64834;52.516;10.528;2023-07-29T10:43:11;99949.34;;;23.37;80.35
76108;BME280;64834;52.516;10.528;2023-07-29T10:45:38;99941.47;;;23.23;78.93
76108;BME280;64834;52.516;10.528;2023-07-29T10:48:09;99941.41;;;23.32;77.53
76108;BME280;64834;52.516;10.528;2023-07-29T10:50:35;99934.25;;;23.34;80.01
76108;BME280;64834;52.516;10.528;2023-07-29T10:53:00;99938.84;;;23.15;77.60
76108;BME280;64834;52.516;10.528;2023-07-29T10:55:36;99938.16;;;22.84;80.21
76108;BME280;64834;52.516;10.528;2023-07-29T10:58:09;99932.00;;;22.73;81.77
76108;BME280;64834;52.516;10.528;2023-07-29T11:00:36;99921.25;;;22.92;81.86
76108;BME280;64834;52.516;10.528;2023-07-29T11:03:03;99911.25;;;23.20;80.90
76108;BME280;64834;52.516;10.528;2023-07-29T11:05:50;99916.44;;;23.35;80.69
76108;BME280;64834;52.516;10.528;2023-07-29T11:08:31;99925.38;;;23.32;78.91
76108;BME280;64834;52.516;10.528;2023-07-29T11:11:07;99920.00;;;23.38;78.76
76108;BME280;64834;52.516;10.528;2023-07-29T11:13:37;99917.22;;;23.48;78.35
76108;BME280;64834;52.516;10.528;2023-07-29T11:16:03;99919.50;;;23.87;76.92
76108;BME280;64834;52.516;10.528;2023-07-29T11:18:34;99914.22;;;23.81;75.95
76108;BME280;64834;52.516;10.528;2023-07-29T11:21:00;99924.03;;;23.84;79.62
76108;BME280;64834;52.516;10.528;2023-07-29T11:23:36;99929.47;;;23.76;79.52
76108;BME280;64834;52.516;10.528;2023-07-29T11:26:03;99929.09;;;23.11;82.46
76108;BME280;64834;52.516;10.528;2023-07-29T11:28:29;99923.16;;;22.62;84.32
76108;BME280;64834;52.516;10.528;2023-07-29T11:30:55;99927.75;;;22.40;85.98
76108;BME280;64834;52.516;10.528;2023-07-29T11:33:23;99930.38;;;22.43;83.97
76108;BME280;64834;52.516;10.528;2023-07-29T11:35:49;99923.16;;;22.65;81.87
76108;BME280;64834;52.516;10.528;2023-07-29T11:38:15;99920.41;;;22.77;81.26
76108;BME280;64834;52.516;10.528;2023-07-29T11:40:41;99924.03;;;22.70;79.57
76108;BME280;64834;52.516;10.528;2023-07-29T11:43:07;99912.28;;;23.02;78.50
76108;BME280;64834;52.516;10.528;2023-07-29T11:45:33;99912.22;;;23.06;74.59
76108;BME280;64834;52.516;10.528;2023-07-29T11:47:58;99914.88;;;23.09;76.63
76108;BME280;64834;52.516;10.528;2023-07-29T11:50:24;99912.91;;;23.34;73.07
76108;BME280;64834;52.516;10.528;2023-07-29T11:52:49;99907.09;;;23.85;71.99
76108;BME280;64834;52.516;10.528;2023-07-29T11:55:15;99904.59;;;23.68;71.32
76108;BME280;64834;52.516;10.528;2023-07-29T11:57:41;99905.38;;;23.79;69.38
76108;BME280;64834;52.516;10.528;2023-07-29T12:00:08;99894.00;;;23.54;70.05
76108;BME280;64834;52.516;10.528;2023-07-29T12:02:37;99892.44;;;23.33;72.89
76108;BME280;64834;52.516;10.528;2023-07-29T12:05:04;99888.69;;;23.53;72.45
76108;BME280;64834;52.516;10.528;2023-07-29T12:07:30;99893.84;;;23.73;71.18
76108;BME280;64834;52.516;10.528;2023-07-29T12:09:56;99902.56;;;23.91;70.44
76108;BME280;64834;52.516;10.528;2023-07-29T12:12:22;99902.38;;;24.08;71.13
76108;BME280;64834;52.516;10.528;2023-07-29T12:14:48;99889.59;;;24.30;68.39
76108;BME280;64834;52.516;10.528;2023-07-29T12:17:14;99909.38;;;23.32;71.41
76108;BME280;64834;52.516;10.528;2023-07-29T12:19:39;99913.25;;;22.90;74.17
76108;BME280;64834;52.516;10.528;2023-07-29T12:22:07;99923.16;;;22.65;75.28
76108;BME280;64834;52.516;10.528;2023-07-29T12:24:33;99920.06;;;23.29;74.80
76108;BME280;64834;52.516;10.528;2023-07-29T12:27:00;99924.44;;;23.36;74.91
76108;BME280;64834;52.516;10.528;2023-07-29T12:29:25;99920.66;;;23.60;70.66
76108;BME280;64834;52.516;10.528;2023-07-29T12:32:02;99913.47;;;23.72;69.90
76108;BME280;64834;52.516;10.528;2023-07-29T12:34:28;99915.38;;;23.54;68.40
76108;BME280;64834;52.516;10.528;2023-07-29T12:36:55;99911.63;;;23.75;70.20
76108;BME280;64834;52.516;10.528;2023-07-29T12:39:22;99907.03;;;23.88;68.97
76108;BME280;64834;52.516;10.528;2023-07-29T12:41:49;99915.41;;;23.53;69.54